createdAt,value
2022-10-19T00:00:28.062Z,4.95
2022-10-19T00:02:57.464Z,5.40
2022-10-19T00:05:25.458Z,4.75
2022-10-19T00:07:54.491Z,4.78
2022-10-19T00:10:22.632Z,4.60
2022-10-19T00:12:51.176Z,5.25
2022-10-19T00:15:19.471Z,5.18
2022-10-19T00:17:47.438Z,4.90
2022-10-19T00:20:17.030Z,4.30
2022-10-19T00:22:45.148Z,5.18
2022-10-19T00:25:13.267Z,4.65
2022-10-19T00:27:41.223Z,4.75
2022-10-19T00:30:10.120Z,5.40
2022-10-19T00:32:38.127Z,5.25
2022-10-19T00:35:07.022Z,5.72
2022-10-19T00:37:36.309Z,5.30
2022-10-19T00:40:05.090Z,5.22
2022-10-19T00:42:33.277Z,6.18
2022-10-19T00:45:06.838Z,4.90
2022-10-19T00:47:35.346Z,4.82
2022-10-19T00:50:05.551Z,5.05
2022-10-19T00:52:33.880Z,5.05
2022-10-19T00:55:04.163Z,5.18
2022-10-19T00:57:33.614Z,5.10
2022-10-19T01:00:05.283Z,4.65
2022-10-19T01:02:33.529Z,5.50
2022-10-19T01:05:02.916Z,4.43
2022-10-19T01:07:31.111Z,5.28
2022-10-19T01:09:59.799Z,4.57
2022-10-19T01:12:51.457Z,4.70
2022-10-19T01:15:31.069Z,4.53
2022-10-19T01:18:06.984Z,5.80
2022-10-19T01:21:03.782Z,4.95
2022-10-19T01:24:16.278Z,4.85
2022-10-19T01:27:15.464Z,4.60
2022-10-19T01:30:07.593Z,4.68
2022-10-19T01:32:46.394Z,5.15
2022-10-19T01:35:26.010Z,4.45
2022-10-19T01:38:04.944Z,4.72
2022-10-19T01:40:40.007Z,4.53
2022-10-19T01:43:14.458Z,4.90
2022-10-19T01:45:48.530Z,4.25
2022-10-19T01:48:20.234Z,4.55
2022-10-19T01:50:53.393Z,4.88
2022-10-19T01:53:22.789Z,4.38
2022-10-19T01:55:53.634Z,4.85
2022-10-19T01:58:27.592Z,5.07
2022-10-19T02:01:00.469Z,4.88
2022-10-19T02:03:29.595Z,5.18
2022-10-19T02:05:58.779Z,5.30
2022-10-19T02:08:31.203Z,4.47
2022-10-19T02:11:00.918Z,4.95
2022-10-19T02:13:30.376Z,5.55
2022-10-19T02:16:02.470Z,5.32
2022-10-19T02:18:34.465Z,5.32
2022-10-19T02:21:03.162Z,5.53
2022-10-19T02:23:31.292Z,5.55
2022-10-19T02:26:00.180Z,5.32
2022-10-19T02:28:29.263Z,5.90
2022-10-19T02:30:59.655Z,5.13
2022-10-19T02:33:29.848Z,5.50
2022-10-19T02:35:59.009Z,6.25
2022-10-19T02:38:27.270Z,5.90
2022-10-19T02:41:03.753Z,6.20
2022-10-19T02:43:35.793Z,5.50
2022-10-19T02:46:11.771Z,5.90
2022-10-19T02:48:41.504Z,6.68
2022-10-19T02:51:28.251Z,6.40
2022-10-19T02:53:57.376Z,5.40
2022-10-19T02:56:27.258Z,6.00
2022-10-19T02:58:55.792Z,5.47
2022-10-19T03:01:25.462Z,6.10
2022-10-19T03:03:53.563Z,6.40
2022-10-19T03:06:21.558Z,6.88
2022-10-19T03:08:49.588Z,6.82
2022-10-19T03:11:17.597Z,6.30
2022-10-19T03:13:45.666Z,6.45
2022-10-19T03:16:14.315Z,6.40
2022-10-19T03:18:43.798Z,6.75
2022-10-19T03:21:14.252Z,7.63
2022-10-19T03:23:42.767Z,6.75
2022-10-19T03:26:14.943Z,6.53
2022-10-19T03:28:43.419Z,7.57
2022-10-19T03:31:11.536Z,7.45
2022-10-19T03:33:39.596Z,8.20
2022-10-19T03:36:20.915Z,7.43
2022-10-19T03:38:50.517Z,7.88
2022-10-19T03:41:18.739Z,7.30
2022-10-19T03:43:46.927Z,8.50
2022-10-19T03:46:15.603Z,7.35
2022-10-19T03:48:43.790Z,9.27
2022-10-19T03:51:16.301Z,8.88
2022-10-19T03:53:44.721Z,7.47
2022-10-19T03:56:14.847Z,7.35
2022-10-19T03:58:44.376Z,8.05
2022-10-19T04:01:14.801Z,7.35
2022-10-19T04:03:42.921Z,7.72
2022-10-19T04:06:15.847Z,7.80
2022-10-19T04:08:50.260Z,7.25
2022-10-19T04:11:20.332Z,7.28
2022-10-19T04:13:49.384Z,8.02
2022-10-19T04:16:17.734Z,7.32
2022-10-19T04:18:45.936Z,7.85
2022-10-19T04:21:22.818Z,8.93
2022-10-19T04:23:53.040Z,7.65
2022-10-19T04:26:21.838Z,7.60
2022-10-19T04:28:49.980Z,7.93
2022-10-19T04:31:18.109Z,7.80
2022-10-19T04:36:19.284Z,7.03
2022-10-19T04:38:47.517Z,8.02
2022-10-19T04:41:18.825Z,8.25
2022-10-19T04:43:47.275Z,9.32
2022-10-19T04:46:17.514Z,7.85
2022-10-19T04:48:47.103Z,9.15
2022-10-19T04:51:16.391Z,8.50
2022-10-19T04:53:45.227Z,7.68
2022-10-19T04:56:15.171Z,8.20
2022-10-19T04:58:45.021Z,7.97
2022-10-19T05:01:14.590Z,7.03
2022-10-19T05:03:42.926Z,6.75
2022-10-19T05:06:11.444Z,8.02
2022-10-19T05:08:40.272Z,7.70
2022-10-19T05:11:10.442Z,7.75
2022-10-19T05:13:38.730Z,8.15
2022-10-19T05:16:11.871Z,7.80
2022-10-19T05:18:40.687Z,8.10
2022-10-19T05:21:10.484Z,8.25
2022-10-19T05:23:39.366Z,8.07
2022-10-19T05:26:09.007Z,7.50
2022-10-19T05:28:37.830Z,7.30
2022-10-19T05:31:12.228Z,8.05
2022-10-19T05:33:40.577Z,9.95
2022-10-19T05:36:16.448Z,9.38
2022-10-19T05:38:44.923Z,8.98
2022-10-19T05:41:13.516Z,8.57
2022-10-19T05:43:42.722Z,9.38
2022-10-19T05:46:13.939Z,7.85
2022-10-19T05:48:42.545Z,10.65
2022-10-19T05:51:13.125Z,12.10
2022-10-19T05:53:41.734Z,9.48
2022-10-19T05:56:14.875Z,9.73
2022-10-19T05:58:42.901Z,9.85
2022-10-19T06:01:12.539Z,9.38
2022-10-19T06:03:40.617Z,8.45
2022-10-19T06:06:10.124Z,7.97
2022-10-19T06:08:39.189Z,7.10
2022-10-19T06:11:07.984Z,9.27
2022-10-19T06:13:36.512Z,8.68
2022-10-19T06:16:04.853Z,8.35
2022-10-19T06:18:34.984Z,8.25
2022-10-19T06:21:04.477Z,8.32
2022-10-19T06:23:32.730Z,8.02
2022-10-19T06:26:02.901Z,9.20
2022-10-19T06:28:31.197Z,8.27
2022-10-19T06:30:59.667Z,8.38
2022-10-19T06:33:28.187Z,9.85
2022-10-19T06:35:57.521Z,8.68
2022-10-19T06:38:25.620Z,8.35
2022-10-19T06:40:53.630Z,8.38
2022-10-19T06:43:21.622Z,9.32
2022-10-19T06:45:49.580Z,7.80
2022-10-19T06:48:17.669Z,8.75
2022-10-19T06:50:45.675Z,8.73
2022-10-19T06:53:15.059Z,8.50
2022-10-19T06:55:43.028Z,7.15
2022-10-19T06:58:11.034Z,7.13
2022-10-19T07:00:39.115Z,7.57
2022-10-19T07:03:07.188Z,6.65
2022-10-19T07:05:35.164Z,6.72
2022-10-19T07:08:03.292Z,6.85
2022-10-19T07:10:32.649Z,6.38
2022-10-19T07:13:00.757Z,6.30
2022-10-19T07:15:28.723Z,5.32
2022-10-19T07:17:56.764Z,6.10
2022-10-19T07:20:24.798Z,6.00
2022-10-19T07:22:52.826Z,5.70
2022-10-19T07:25:20.817Z,6.13
2022-10-19T07:27:50.274Z,6.00
2022-10-19T07:30:18.352Z,6.78
2022-10-19T07:32:47.194Z,6.15
2022-10-19T07:35:15.622Z,6.45
2022-10-19T07:37:43.839Z,7.35
2022-10-19T07:40:13.380Z,7.75
2022-10-19T07:42:41.608Z,9.25
2022-10-19T07:45:11.730Z,8.27
2022-10-19T07:47:39.751Z,8.90
2022-10-19T07:50:08.052Z,8.65
2022-10-19T07:52:37.051Z,9.05
2022-10-19T07:55:06.040Z,9.02
2022-10-19T07:57:34.060Z,7.88
2022-10-19T08:00:02.431Z,7.88
2022-10-19T08:02:39.652Z,8.15
2022-10-19T08:05:19.852Z,7.35
2022-10-19T08:07:47.943Z,8.85
2022-10-19T08:10:16.145Z,8.10
2022-10-19T08:12:44.213Z,7.78
2022-10-19T08:15:12.209Z,7.07
2022-10-19T08:17:41.601Z,8.50
2022-10-19T08:20:10.262Z,7.60
2022-10-19T08:22:38.315Z,8.18
2022-10-19T08:25:07.134Z,7.88
2022-10-19T08:30:04.425Z,8.73
2022-10-19T08:32:32.991Z,8.85
2022-10-19T08:35:05.041Z,8.38
2022-10-19T08:37:46.245Z,6.97
2022-10-19T08:40:20.327Z,7.15
2022-10-19T08:42:54.871Z,8.23
2022-10-19T08:48:25.747Z,8.15
2022-10-19T08:50:56.948Z,7.75
2022-10-19T08:53:33.520Z,7.43
2022-10-19T08:56:27.004Z,7.43
2022-10-19T08:59:13.909Z,8.20
2022-10-19T09:01:46.875Z,8.02
2022-10-19T09:04:22.633Z,7.85
2022-10-19T09:07:22.605Z,7.75
2022-10-19T09:09:55.778Z,8.38
2022-10-19T09:12:34.452Z,7.45
2022-10-19T09:15:06.152Z,8.10
2022-10-19T09:17:34.777Z,7.47
2022-10-19T09:20:16.448Z,7.57
2022-10-19T09:22:47.150Z,6.72
2022-10-19T09:25:19.782Z,8.00
2022-10-19T09:30:38.780Z,7.55
2022-10-19T09:33:15.397Z,6.43
2022-10-19T09:35:46.631Z,6.60
2022-10-19T09:38:17.791Z,6.32
2022-10-19T09:40:45.892Z,6.95
2022-10-19T09:43:22.835Z,6.78
2022-10-19T09:45:54.823Z,6.93
2022-10-19T09:48:30.286Z,6.65
2022-10-19T09:51:00.523Z,7.07
2022-10-19T09:53:31.098Z,6.80
2022-10-19T09:56:01.615Z,6.25
2022-10-19T09:58:33.118Z,7.13
2022-10-19T10:01:02.937Z,7.20
2022-10-19T10:03:32.906Z,7.20
2022-10-19T10:06:05.058Z,6.63
2022-10-19T10:08:37.664Z,6.72
2022-10-19T10:11:09.652Z,6.95
2022-10-19T10:13:40.444Z,7.53
2022-10-19T10:16:10.480Z,7.15
2022-10-19T10:18:46.472Z,7.68
2022-10-19T10:21:25.366Z,7.40
2022-10-19T10:24:05.601Z,7.40
2022-10-19T10:26:38.668Z,7.50
2022-10-19T10:29:18.265Z,6.97
2022-10-19T10:31:48.417Z,6.65
2022-10-19T10:34:37.683Z,7.25
2022-10-19T10:37:09.179Z,7.75
2022-10-19T10:39:43.676Z,7.20
2022-10-19T10:42:18.310Z,7.20
2022-10-19T10:44:49.539Z,7.35
2022-10-19T10:47:20.494Z,7.40
2022-10-19T10:49:55.633Z,7.45
2022-10-19T10:52:24.503Z,8.35
2022-10-19T10:55:02.420Z,7.30
2022-10-19T10:57:34.358Z,6.70
2022-10-19T11:00:11.164Z,7.03
2022-10-19T11:02:47.329Z,6.85
2022-10-19T11:05:20.587Z,7.65
2022-10-19T11:07:52.970Z,7.75
2022-10-19T11:10:27.751Z,7.32
2022-10-19T11:13:04.398Z,8.32
2022-10-19T11:15:38.001Z,7.90
2022-10-19T11:18:17.795Z,7.38
2022-10-19T11:20:56.462Z,7.85
2022-10-19T11:23:44.989Z,7.75
2022-10-19T11:26:30.488Z,9.05
2022-10-19T11:29:11.015Z,7.68
2022-10-19T11:31:45.877Z,8.65
2022-10-19T11:34:28.662Z,7.57
2022-10-19T11:37:03.239Z,8.48
2022-10-19T11:39:49.903Z,7.90
2022-10-19T11:42:25.046Z,8.13
2022-10-19T11:45:04.332Z,6.88
2022-10-19T11:47:52.109Z,7.68
2022-10-19T11:50:34.449Z,7.50
2022-10-19T11:53:10.516Z,7.15
2022-10-19T11:55:44.001Z,7.70
2022-10-19T11:58:40.406Z,7.70
2022-10-19T12:01:17.191Z,7.45
2022-10-19T12:04:12.656Z,7.63
2022-10-19T12:06:48.573Z,7.35
2022-10-19T12:09:29.628Z,6.95
2022-10-19T12:12:11.041Z,7.72
2022-10-19T12:14:44.356Z,7.60
2022-10-19T12:17:18.050Z,7.60
2022-10-19T12:19:50.197Z,7.65
2022-10-19T12:22:22.107Z,7.82
2022-10-19T12:24:51.269Z,8.10
2022-10-19T12:27:25.703Z,9.00
2022-10-19T12:29:56.173Z,7.68
2022-10-19T12:32:26.040Z,8.23
2022-10-19T12:34:59.181Z,7.47
2022-10-19T12:37:36.025Z,7.85
2022-10-19T12:40:09.551Z,8.20
2022-10-19T12:42:51.438Z,9.15
2022-10-19T12:45:30.313Z,8.75
2022-10-19T12:48:25.594Z,8.60
2022-10-19T12:51:11.942Z,8.05
2022-10-19T12:53:42.004Z,8.68
2022-10-19T12:56:14.394Z,7.68
2022-10-19T12:58:50.061Z,8.48
2022-10-19T13:01:23.587Z,7.45
2022-10-19T13:04:06.566Z,7.95
2022-10-19T13:06:36.849Z,7.78
2022-10-19T13:09:07.998Z,8.00
2022-10-19T13:11:38.218Z,7.70
2022-10-19T13:14:27.816Z,8.32
2022-10-19T13:17:01.320Z,9.60
2022-10-19T13:19:29.686Z,8.43
2022-10-19T13:22:27.633Z,8.90
2022-10-19T13:25:23.631Z,7.95
2022-10-19T13:27:52.807Z,7.25
2022-10-19T13:31:06.285Z,8.07
2022-10-19T13:33:49.900Z,7.70
2022-10-19T13:36:19.176Z,6.68
2022-10-19T13:38:49.368Z,7.03
2022-10-19T13:41:21.467Z,7.13
2022-10-19T13:44:18.360Z,7.15
2022-10-19T13:46:56.489Z,7.15
2022-10-19T13:49:44.305Z,6.50
2022-10-19T13:52:44.121Z,6.53
2022-10-19T13:55:34.889Z,7.22
2022-10-19T13:58:21.370Z,6.60
2022-10-19T14:01:07.848Z,6.72
2022-10-19T14:04:02.791Z,7.55
2022-10-19T14:06:37.353Z,7.72
2022-10-19T14:09:47.280Z,6.45
2022-10-19T14:12:22.231Z,6.78
2022-10-19T14:14:51.969Z,6.57
2022-10-19T14:17:21.499Z,5.88
2022-10-19T14:19:52.332Z,6.22
2022-10-19T14:22:29.948Z,6.38
2022-10-19T14:25:07.389Z,6.93
2022-10-19T14:27:36.153Z,6.68
2022-10-19T14:30:05.556Z,5.53
2022-10-19T14:32:35.525Z,6.75
2022-10-19T14:35:06.938Z,6.80
2022-10-19T14:37:37.829Z,6.25
2022-10-19T14:40:09.619Z,6.78
2022-10-19T14:42:43.308Z,6.05
2022-10-19T14:45:14.990Z,6.15
2022-10-19T14:47:57.145Z,6.80
2022-10-19T14:50:39.297Z,6.53
2022-10-19T14:53:28.097Z,6.47
2022-10-19T14:56:03.439Z,7.40
2022-10-19T14:58:41.586Z,7.05
2022-10-19T15:01:11.898Z,7.38
2022-10-19T15:03:43.922Z,7.80
2022-10-19T15:06:19.897Z,7.85
2022-10-19T15:08:55.367Z,8.25
2022-10-19T15:11:27.136Z,7.68
2022-10-19T15:14:02.768Z,8.13
2022-10-19T15:16:42.800Z,8.50
2022-10-19T15:19:19.376Z,9.60
2022-10-19T15:22:06.615Z,8.45
2022-10-19T15:24:37.925Z,8.18
2022-10-19T15:27:19.166Z,9.10
2022-10-19T15:29:56.110Z,9.75
2022-10-19T15:32:26.395Z,8.90
2022-10-19T15:34:54.525Z,10.35
2022-10-19T15:37:24.232Z,9.15
2022-10-19T15:39:53.972Z,8.65
2022-10-19T15:42:37.910Z,9.23
2022-10-19T15:45:27.132Z,9.18
2022-10-19T15:48:24.691Z,10.15
2022-10-19T15:50:55.061Z,8.93
2022-10-19T15:53:23.702Z,9.68
2022-10-19T15:55:53.109Z,9.35
2022-10-19T15:58:21.565Z,10.02
2022-10-19T16:00:49.581Z,9.70
2022-10-19T16:03:17.615Z,10.93
2022-10-19T16:05:45.731Z,10.45
2022-10-19T16:08:13.771Z,10.65
2022-10-19T16:10:41.762Z,11.05
2022-10-19T16:13:11.083Z,11.45
2022-10-19T16:15:39.076Z,11.52
2022-10-19T16:18:07.103Z,13.18
2022-10-19T16:20:35.127Z,12.70
2022-10-19T16:23:03.154Z,12.73
2022-10-19T16:25:31.212Z,12.52
2022-10-19T16:27:59.194Z,11.75
2022-10-19T16:30:28.536Z,12.35
2022-10-19T16:32:56.528Z,12.55
2022-10-19T16:35:25.297Z,13.95
2022-10-19T16:37:53.298Z,12.00
2022-10-19T16:40:21.358Z,13.77
2022-10-19T16:42:49.324Z,14.30
2022-10-19T16:45:17.654Z,13.25
2022-10-19T16:47:50.671Z,14.02
2022-10-19T16:50:18.850Z,13.52
2022-10-19T16:52:46.865Z,13.77
2022-10-19T16:55:14.897Z,15.73
2022-10-19T16:57:42.874Z,14.45
2022-10-19T17:00:11.971Z,14.30
2022-10-19T17:02:42.008Z,14.52
2022-10-19T17:05:13.894Z,16.17
2022-10-19T17:07:41.856Z,15.07
2022-10-19T17:10:10.809Z,14.63
2022-10-19T17:12:40.688Z,14.25
2022-10-19T17:15:41.055Z,14.88
2022-10-19T17:17:58.034Z,16.52
2022-10-19T17:20:27.430Z,15.93
2022-10-19T17:22:55.503Z,15.82
2022-10-19T17:25:23.514Z,15.65
2022-10-19T17:27:51.796Z,15.90
2022-10-19T17:30:20.362Z,16.17
2022-10-19T17:32:48.432Z,14.20
2022-10-19T17:35:16.446Z,16.13
2022-10-19T17:37:45.809Z,16.00
2022-10-19T17:40:14.129Z,16.13
2022-10-19T17:42:42.106Z,14.82
2022-10-19T17:45:11.420Z,15.02
2022-10-19T17:47:39.414Z,15.95
2022-10-19T17:50:08.085Z,15.75
2022-10-19T17:52:36.042Z,13.60
2022-10-19T17:55:13.710Z,14.35
2022-10-19T17:57:41.882Z,14.05
2022-10-19T18:00:10.567Z,14.73
2022-10-19T18:02:38.599Z,16.58
2022-10-19T18:05:07.237Z,15.50
2022-10-19T18:07:35.405Z,14.90
2022-10-19T18:10:05.264Z,15.48
2022-10-19T18:12:33.244Z,13.63
2022-10-19T18:15:01.240Z,16.08
2022-10-19T18:17:29.205Z,13.35
2022-10-19T18:19:57.243Z,15.50
2022-10-19T18:22:25.245Z,14.48
2022-10-19T18:24:53.260Z,14.45
2022-10-19T18:27:22.646Z,15.00
2022-10-19T18:29:50.652Z,14.50
2022-10-19T18:32:18.701Z,15.02
2022-10-19T18:34:47.347Z,15.07
2022-10-19T18:37:15.347Z,13.77
2022-10-19T18:39:43.364Z,13.45
2022-10-19T18:42:12.816Z,14.77
2022-10-19T18:44:42.339Z,13.68
2022-10-19T18:47:11.776Z,14.10
2022-10-19T18:49:39.799Z,14.43
2022-10-19T18:52:07.827Z,13.80
2022-10-19T18:54:35.831Z,13.43
2022-10-19T18:57:03.908Z,14.70
2022-10-19T18:59:32.084Z,13.40
2022-10-19T19:02:01.546Z,13.75
2022-10-19T19:04:29.744Z,13.05
2022-10-19T19:06:57.798Z,12.73
2022-10-19T19:09:25.866Z,13.73
2022-10-19T19:11:57.518Z,12.45
2022-10-19T19:14:26.516Z,14.02
2022-10-19T19:16:54.725Z,12.18
2022-10-19T19:19:25.818Z,12.68
2022-10-19T19:21:55.057Z,13.88
2022-10-19T19:24:28.152Z,12.85
2022-10-19T19:26:57.842Z,13.32
2022-10-19T19:29:26.242Z,13.00
2022-10-19T19:31:54.455Z,12.02
2022-10-19T19:34:23.861Z,12.60
2022-10-19T19:36:51.859Z,12.75
2022-10-19T19:39:21.703Z,13.40
2022-10-19T19:41:50.940Z,11.77
2022-10-19T19:44:19.645Z,11.68
2022-10-19T19:46:47.718Z,12.23
2022-10-19T19:49:17.386Z,11.45
2022-10-19T19:51:46.697Z,11.15
2022-10-19T19:54:14.724Z,12.85
2022-10-19T19:56:43.286Z,12.60
2022-10-19T19:59:12.752Z,11.43
2022-10-19T20:01:40.828Z,11.25
2022-10-19T20:04:09.261Z,11.88
2022-10-19T20:06:39.619Z,11.65
2022-10-19T20:09:10.600Z,12.60
2022-10-19T20:11:42.352Z,11.68
2022-10-19T20:14:11.554Z,11.65
2022-10-19T20:16:39.695Z,11.18
2022-10-19T20:19:09.971Z,12.13
2022-10-19T20:21:38.536Z,12.50
2022-10-19T20:24:08.742Z,12.50
2022-10-19T20:26:36.854Z,11.85
2022-10-19T20:29:05.732Z,12.05
2022-10-19T20:31:39.640Z,12.38
2022-10-19T20:34:09.917Z,11.30
2022-10-19T20:36:38.029Z,12.23
2022-10-19T20:39:06.176Z,12.73
2022-10-19T20:41:35.628Z,11.02
2022-10-19T20:44:03.765Z,12.43
2022-10-19T20:46:32.279Z,10.55
2022-10-19T20:49:02.134Z,11.02
2022-10-19T20:51:32.639Z,10.68
2022-10-19T20:54:02.632Z,10.95
2022-10-19T20:56:32.903Z,10.32
2022-10-19T21:01:39.243Z,10.48
2022-10-19T21:04:09.228Z,9.80
2022-10-19T21:06:40.447Z,11.27
2022-10-19T21:09:09.602Z,9.70
2022-10-19T21:11:39.279Z,10.57
2022-10-19T21:14:12.799Z,10.85
2022-10-19T21:16:41.666Z,10.30
2022-10-19T21:19:13.360Z,10.73
2022-10-19T21:21:43.629Z,10.63
2022-10-19T21:24:13.734Z,10.38
2022-10-19T21:26:42.004Z,10.55
2022-10-19T21:29:12.746Z,10.18
2022-10-19T21:31:44.108Z,10.90
2022-10-19T21:34:17.515Z,10.98
2022-10-19T21:36:45.566Z,11.73
2022-10-19T21:39:13.665Z,10.95
2022-10-19T21:41:41.667Z,11.27
2022-10-19T21:44:11.220Z,11.23
2022-10-19T21:46:39.252Z,10.13
2022-10-19T21:49:07.248Z,10.13
2022-10-19T21:51:38.496Z,9.32
2022-10-19T21:54:08.668Z,9.95
2022-10-19T21:56:37.959Z,10.02
2022-10-19T21:59:06.175Z,10.50
2022-10-19T22:01:38.683Z,9.75
2022-10-19T22:04:12.418Z,10.10
2022-10-19T22:06:41.296Z,10.27
2022-10-19T22:09:11.141Z,10.32
2022-10-19T22:11:39.250Z,9.95
2022-10-19T22:14:07.315Z,9.32
2022-10-19T22:16:37.084Z,10.50
2022-10-19T22:19:06.224Z,10.13
2022-10-19T22:24:06.785Z,9.63
2022-10-19T22:26:36.689Z,9.30
2022-10-19T22:29:05.710Z,10.60
2022-10-19T22:31:34.673Z,10.13
2022-10-19T22:34:09.032Z,10.80
2022-10-19T22:36:37.097Z,9.40
2022-10-19T22:39:05.290Z,9.82
2022-10-19T22:41:33.345Z,10.23
2022-10-19T22:44:01.602Z,9.68
2022-10-19T22:46:29.651Z,9.80
2022-10-19T22:48:57.766Z,9.75
2022-10-19T22:51:27.678Z,10.25
2022-10-19T22:53:55.713Z,10.90
2022-10-19T22:56:23.828Z,10.25
2022-10-19T22:58:51.888Z,10.50
2022-10-19T23:01:20.250Z,10.13
2022-10-19T23:03:48.376Z,10.23
2022-10-19T23:06:17.126Z,10.52
2022-10-19T23:08:47.167Z,10.98
2022-10-19T23:11:15.681Z,12.05
2022-10-19T23:13:44.020Z,10.82
2022-10-19T23:16:12.117Z,10.82
2022-10-19T23:18:41.682Z,9.55
2022-10-19T23:21:13.833Z,10.77
2022-10-19T23:23:42.632Z,10.40
2022-10-19T23:26:13.777Z,9.85
2022-10-19T23:28:44.041Z,9.98
2022-10-19T23:31:14.137Z,10.38
2022-10-19T23:33:42.893Z,10.25
2022-10-19T23:36:14.277Z,10.73
2022-10-19T23:38:42.584Z,10.48
2022-10-19T23:41:12.642Z,10.25
2022-10-19T23:43:40.973Z,11.35
2022-10-19T23:46:09.386Z,11.07
2022-10-19T23:48:37.514Z,11.23
2022-10-19T23:51:07.753Z,10.90
2022-10-19T23:53:40.718Z,10.70
2022-10-19T23:56:13.025Z,10.35
2022-10-19T23:58:41.215Z,11.10
